Time;durP1;ratioP1;P1;durP2;ratioP2;P2;SDS_P1;SDS_P2;PMS_P1;PMS_P2;Temp;Humidity;BMP_temperature;BMP_pressure;BME280_temperature;BME280_humidity;BME280_pressure;Samples;Min_cycle;Max_cycle;Signal;HPM_P1;HPM_P2
2023/05/09 00:00:39;;;;;;;21.97;17.03;;;12.70;99.90;;;;;;5073798;28;20559;-67
2023/05/09 00:03:13;;;;;;;17.83;14.83;;;12.60;99.90;;;;;;5074743;28;20432;-67
2023/05/09 00:05:40;;;;;;;18.60;15.70;;;12.60;99.90;;;;;;5074411;28;21012;-67
2023/05/09 00:08:08;;;;;;;22.10;16.60;;;12.60;99.90;;;;;;5074351;28;20914;-67
2023/05/09 00:10:35;;;;;;;23.40;18.00;;;12.60;99.90;;;;;;5074109;28;20432;-67
2023/05/09 00:13:02;;;;;;;22.77;16.60;;;12.60;99.90;;;;;;5074018;28;20436;-67
2023/05/09 00:15:30;;;;;;;17.97;14.13;;;12.60;99.90;;;;;;5074292;28;20530;-67
2023/05/09 00:18:00;;;;;;;19.23;15.27;;;12.70;99.90;;;;;;5073632;28;20513;-67
2023/05/09 00:20:27;;;;;;;17.43;14.17;;;12.60;99.90;;;;;;5073217;28;21055;-67
2023/05/09 00:22:59;;;;;;;18.67;14.77;;;12.60;99.90;;;;;;5074224;28;20840;-67
2023/05/09 00:25:26;;;;;;;23.60;18.10;;;12.60;99.90;;;;;;5073543;28;20494;-67
2023/05/09 00:27:55;;;;;;;18.40;15.70;;;12.60;99.90;;;;;;5074112;28;20473;-67
2023/05/09 00:30:25;;;;;;;17.93;14.20;;;12.50;99.90;;;;;;5074111;28;20810;-67
2023/05/09 00:32:55;;;;;;;18.93;14.77;;;12.60;99.90;;;;;;5074005;28;20472;-67
2023/05/09 00:35:24;;;;;;;14.67;12.77;;;12.60;99.90;;;;;;5073445;28;20460;-67
2023/05/09 00:37:51;;;;;;;17.87;14.90;;;12.60;99.90;;;;;;5074369;28;20934;-67
2023/05/09 00:40:18;;;;;;;17.80;14.60;;;12.60;99.90;;;;;;5073241;28;20483;-67
2023/05/09 00:42:46;;;;;;;22.67;15.50;;;12.60;99.90;;;;;;5073824;28;20440;-67
2023/05/09 00:45:16;;;;;;;20.33;16.83;;;12.60;99.90;;;;;;5073370;28;20510;-67
2023/05/09 00:47:43;;;;;;;19.03;15.23;;;12.60;99.90;;;;;;5072783;28;20462;-67
2023/05/09 00:50:11;;;;;;;20.73;16.53;;;12.60;99.90;;;;;;5073169;28;20852;-67
2023/05/09 00:52:39;;;;;;;22.97;18.07;;;12.60;99.90;;;;;;5073768;28;20440;-67
2023/05/09 00:55:08;;;;;;;27.20;21.10;;;12.60;99.90;;;;;;5073364;28;20440;-67
2023/05/09 00:57:36;;;;;;;30.43;24.00;;;12.60;99.90;;;;;;5073724;28;20767;-68
2023/05/09 01:00:05;;;;;;;29.97;21.00;;;12.60;99.90;;;;;;5073228;28;20559;-67
2023/05/09 01:02:32;;;;;;;28.80;21.10;;;12.50;99.90;;;;;;5073305;28;20493;-67
2023/05/09 01:04:59;;;;;;;31.57;21.60;;;12.50;99.90;;;;;;5072705;28;20455;-67
2023/05/09 01:07:34;;;;;;;26.63;20.97;;;12.50;99.90;;;;;;5073360;28;20452;-67
2023/05/09 01:10:11;;;;;;;25.53;19.63;;;12.50;99.90;;;;;;5073004;28;20493;-67
2023/05/09 01:12:47;;;;;;;27.53;19.60;;;12.50;99.90;;;;;;5073370;28;20447;-67
2023/05/09 01:15:20;;;;;;;27.67;21.67;;;12.50;99.90;;;;;;5072739;28;20969;-67
2023/05/09 01:17:57;;;;;;;30.83;21.07;;;12.50;99.90;;;;;;5072246;28;20564;-67
2023/05/09 01:20:32;;;;;;;24.27;18.03;;;12.50;99.90;;;;;;5072525;28;20482;-67
2023/05/09 01:23:23;;;;;;;30.47;20.83;;;12.50;99.90;;;;;;5073228;28;20489;-67
2023/05/09 01:25:57;;;;;;;31.73;22.10;;;12.50;99.90;;;;;;5072800;28;20492;-67
2023/05/09 01:28:52;;;;;;;28.27;19.83;;;12.50;99.90;;;;;;5073075;28;20439;-67
2023/05/09 01:31:21;;;;;;;31.23;20.77;;;12.50;99.90;;;;;;5072433;28;20461;-67
2023/05/09 01:33:53;;;;;;;29.87;20.90;;;12.60;99.90;;;;;;5072480;28;20436;-67
2023/05/09 01:36:23;;;;;;;32.80;20.03;;;12.50;99.90;;;;;;5072450;28;20435;-67
2023/05/09 01:38:52;;;;;;;26.73;19.80;;;12.50;99.90;;;;;;5072904;28;20538;-67
2023/05/09 01:41:22;;;;;;;26.93;20.20;;;12.60;99.90;;;;;;5072284;28;20476;-67
2023/05/09 01:43:51;;;;;;;26.60;21.53;;;12.60;99.90;;;;;;5072787;28;20444;-67
2023/05/09 01:46:21;;;;;;;31.50;22.60;;;12.60;99.90;;;;;;5072173;28;20983;-68
2023/05/09 01:48:54;;;;;;;30.90;20.90;;;12.60;99.90;;;;;;5072523;28;20436;-67
2023/05/09 01:51:23;;;;;;;26.50;20.20;;;12.60;99.90;;;;;;5072293;28;20479;-67
2023/05/09 01:53:51;;;;;;;28.70;20.50;;;12.60;99.90;;;;;;5072399;28;20440;-67
2023/05/09 01:56:21;;;;;;;31.17;21.43;;;12.70;99.90;;;;;;5072402;28;20440;-67
2023/05/09 01:58:50;;;;;;;27.77;21.30;;;12.70;99.90;;;;;;5072378;28;20518;-67
2023/05/09 02:01:18;;;;;;;30.67;22.60;;;12.70;99.90;;;;;;5072242;28;20479;-67
2023/05/09 02:03:52;;;;;;;32.73;22.30;;;12.70;99.90;;;;;;5072465;28;20446;-67
2023/05/09 02:06:22;;;;;;;28.83;21.83;;;12.70;99.90;;;;;;5072021;28;20923;-67
2023/05/09 02:08:51;;;;;;;31.60;23.37;;;12.70;99.90;;;;;;5072894;28;20447;-67
2023/05/09 02:11:18;;;;;;;28.87;22.30;;;12.70;99.90;;;;;;5072434;28;20519;-67
2023/05/09 02:13:45;;;;;;;29.87;21.53;;;12.70;99.90;;;;;;5072477;28;20450;-67
2023/05/09 02:16:13;;;;;;;33.00;24.10;;;12.80;99.90;;;;;;5071775;28;20436;-67
2023/05/09 02:18:41;;;;;;;31.10;22.63;;;12.70;99.90;;;;;;5071485;28;20468;-67
2023/05/09 02:21:10;;;;;;;29.97;23.17;;;12.80;99.90;;;;;;5072121;28;20834;-67
2023/05/09 02:23:37;;;;;;;30.97;23.27;;;12.80;99.90;;;;;;5072604;28;20532;-67
2023/05/09 02:26:07;;;;;;;34.33;24.30;;;12.80;99.90;;;;;;5072167;28;20439;-67
2023/05/09 02:28:35;;;;;;;32.20;21.67;;;12.80;99.90;;;;;;5072576;28;20915;-67
2023/05/09 02:31:06;;;;;;;36.30;24.07;;;12.90;99.90;;;;;;5071496;28;20436;-67
2023/05/09 02:33:37;;;;;;;28.63;21.53;;;12.90;99.90;;;;;;5072623;28;20432;-67
2023/05/09 02:36:06;;;;;;;25.50;20.17;;;12.90;99.90;;;;;;5071693;28;20432;-67
2023/05/09 02:38:36;;;;;;;23.07;19.00;;;12.90;99.90;;;;;;5072285;28;20790;-67
2023/05/09 02:41:03;;;;;;;24.30;18.87;;;12.90;99.90;;;;;;5072000;28;21015;-67
2023/05/09 02:43:30;;;;;;;25.77;20.50;;;12.90;99.90;;;;;;5072095;28;20440;-67
2023/05/09 02:45:58;;;;;;;25.17;19.37;;;13.00;99.90;;;;;;5071638;28;20436;-67
2023/05/09 02:48:25;;;;;;;25.20;19.90;;;13.00;99.90;;;;;;5071885;28;20974;-67
2023/05/09 02:50:56;;;;;;;23.47;18.87;;;13.00;99.90;;;;;;5071843;28;20436;-67
2023/05/09 02:53:26;;;;;;;26.20;20.70;;;13.00;99.90;;;;;;5071954;28;20436;-67
2023/05/09 02:55:55;;;;;;;26.40;20.20;;;13.00;99.90;;;;;;5071286;28;20432;-67
2023/05/09 02:58:22;;;;;;;28.87;19.43;;;12.90;99.90;;;;;;5071912;28;20448;-68
2023/05/09 03:00:49;;;;;;;26.20;20.43;;;12.90;99.90;;;;;;5071387;28;20482;-67
2023/05/09 03:03:17;;;;;;;27.40;19.93;;;12.90;99.90;;;;;;5071967;28;20888;-67
2023/05/09 03:05:45;;;;;;;25.83;19.10;;;12.90;99.90;;;;;;5071649;28;20527;-67
2023/05/09 03:08:12;;;;;;;26.63;20.47;;;12.80;99.90;;;;;;5071708;28;20440;-67
2023/05/09 03:10:39;;;;;;;22.70;18.73;;;12.80;99.90;;;;;;5072909;28;20431;-67
2023/05/09 03:13:09;;;;;;;29.30;20.07;;;12.80;99.90;;;;;;5075471;28;20446;-67
2023/05/09 03:15:36;;;;;;;24.00;19.07;;;12.80;99.90;;;;;;5075112;28;20460;-67
2023/05/09 03:18:03;;;;;;;25.83;20.20;;;12.80;99.90;;;;;;5074887;28;20468;-67
2023/05/09 03:20:33;;;;;;;25.27;19.77;;;12.80;99.90;;;;;;5074903;28;21028;-67
2023/05/09 03:23:01;;;;;;;25.17;19.90;;;12.80;99.90;;;;;;5075613;28;20497;-67
2023/05/09 03:25:28;;;;;;;25.83;20.27;;;12.80;99.90;;;;;;5074648;28;20930;-68
2023/05/09 03:27:57;;;;;;;25.37;21.33;;;12.80;99.90;;;;;;5074774;28;20493;-67
2023/05/09 03:30:26;;;;;;;26.87;19.90;;;12.90;99.90;;;;;;5074826;28;20466;-67
2023/05/09 03:32:53;;;;;;;29.63;20.70;;;12.90;99.90;;;;;;5075156;28;20436;-67
2023/05/09 03:35:23;;;;;;;28.00;22.20;;;12.90;99.90;;;;;;5074637;28;20780;-67
2023/05/09 03:37:51;;;;;;;27.37;22.57;;;12.80;99.90;;;;;;5074925;28;20517;-67
2023/05/09 03:40:18;;;;;;;26.40;19.60;;;12.90;99.90;;;;;;5074985;28;20493;-68
2023/05/09 03:42:45;;;;;;;28.70;19.70;;;12.90;99.90;;;;;;5074901;28;20436;-67
2023/05/09 03:45:14;;;;;;;27.60;20.57;;;12.90;99.90;;;;;;5074747;28;20798;-67
2023/05/09 03:47:43;;;;;;;27.77;20.37;;;12.90;99.90;;;;;;5074397;28;20432;-67
2023/05/09 03:50:11;;;;;;;30.70;23.57;;;13.00;99.90;;;;;;5074668;28;20910;-67
2023/05/09 03:52:40;;;;;;;28.73;22.50;;;13.00;99.90;;;;;;5074298;28;20436;-67
2023/05/09 03:55:08;;;;;;;28.20;20.97;;;13.00;99.90;;;;;;5075071;28;20446;-67
2023/05/09 03:57:37;;;;;;;31.13;22.30;;;13.00;99.90;;;;;;5074621;28;20444;-67
2023/05/09 04:00:05;;;;;;;31.40;22.17;;;13.00;99.90;;;;;;5074828;28;20432;-67
2023/05/09 04:02:33;;;;;;;27.93;21.93;;;13.00;99.90;;;;;;5074574;28;20471;-67
2023/05/09 04:05:02;;;;;;;32.17;22.03;;;13.10;99.90;;;;;;5074575;28;20440;-67
2023/05/09 04:07:31;;;;;;;34.50;23.40;;;13.10;99.90;;;;;;5074275;28;20440;-67
2023/05/09 04:10:00;;;;;;;32.20;22.13;;;13.10;99.90;;;;;;5074469;28;20497;-67
2023/05/09 04:12:27;;;;;;;31.13;23.23;;;13.10;99.90;;;;;;5074176;28;20439;-68
2023/05/09 04:14:55;;;;;;;27.93;20.80;;;13.10;99.90;;;;;;5073226;28;20798;-67
2023/05/09 04:17:22;;;;;;;25.30;19.87;;;13.10;99.90;;;;;;5073108;28;20451;-67
2023/05/09 04:19:49;;;;;;;31.37;23.10;;;13.10;99.90;;;;;;5074189;28;20471;-67
2023/05/09 04:22:18;;;;;;;33.30;20.00;;;13.20;99.90;;;;;;5072445;28;20478;-67
2023/05/09 04:24:47;;;;;;;31.63;20.90;;;13.20;99.90;;;;;;5074209;28;20531;-67
2023/05/09 04:27:19;;;;;;;31.23;21.60;;;13.20;99.90;;;;;;5073823;28;20865;-67
2023/05/09 04:29:48;;;;;;;29.40;21.80;;;13.30;99.90;;;;;;5074099;28;20460;-67
2023/05/09 04:32:15;;;;;;;29.80;20.63;;;13.30;99.90;;;;;;5073539;28;20479;-67
2023/05/09 04:34:46;;;;;;;32.47;23.17;;;13.30;99.90;;;;;;5073236;28;20424;-67
2023/05/09 04:37:14;;;;;;;29.90;20.70;;;13.40;99.90;;;;;;5074050;28;20853;-67
2023/05/09 04:39:43;;;;;;;37.37;23.30;;;13.40;99.90;;;;;;5074064;28;20447;-67
2023/05/09 04:42:10;;;;;;;35.90;21.40;;;13.40;99.90;;;;;;5073971;28;20868;-67
2023/05/09 04:44:39;;;;;;;28.90;22.73;;;13.50;99.90;;;;;;5074068;28;20439;-68
2023/05/09 04:47:07;;;;;;;29.20;20.27;;;13.50;99.90;;;;;;5073392;28;20436;-68
2023/05/09 04:49:38;;;;;;;28.67;20.87;;;13.60;99.90;;;;;;5073748;28;20835;-67
2023/05/09 04:52:06;;;;;;;26.80;20.43;;;13.60;99.90;;;;;;5065824;28;20448;-68
2023/05/09 04:54:33;;;;;;;26.73;21.43;;;13.70;99.90;;;;;;5071745;28;20530;-67
2023/05/09 04:57:08;;;;;;;27.90;20.83;;;13.70;99.90;;;;;;5075500;28;20443;-68
2023/05/09 04:59:36;;;;;;;24.10;18.80;;;13.70;99.90;;;;;;5072343;28;20474;-67
2023/05/09 05:02:04;;;;;;;24.07;19.10;;;13.80;99.90;;;;;;5072791;28;20483;-68
2023/05/09 05:04:32;;;;;;;25.90;19.60;;;13.80;99.90;;;;;;5080141;28;20533;-67
2023/05/09 05:06:59;;;;;;;21.93;17.53;;;13.80;99.90;;;;;;5075160;28;20480;-67
2023/05/09 05:09:26;;;;;;;26.77;19.80;;;13.80;99.90;;;;;;5073412;28;20436;-68
2023/05/09 05:11:54;;;;;;;24.30;18.67;;;13.90;99.90;;;;;;5085065;28;20504;-67
2023/05/09 05:14:24;;;;;;;28.90;21.00;;;14.00;99.90;;;;;;5076745;28;20873;-68
2023/05/09 05:16:52;;;;;;;26.47;20.60;;;14.00;99.90;;;;;;5073171;28;20446;-67
2023/05/09 05:19:19;;;;;;;31.47;23.23;;;14.10;99.90;;;;;;5070279;28;20954;-67
2023/05/09 05:21:48;;;;;;;34.47;23.63;;;14.20;99.90;;;;;;5072048;28;20491;-67
2023/05/09 05:24:16;;;;;;;33.27;22.70;;;14.30;99.90;;;;;;5069279;28;21722;-67
2023/05/09 05:26:44;;;;;;;34.43;23.20;;;14.30;99.90;;;;;;5075707;28;20447;-68
2023/05/09 05:29:16;;;;;;;33.40;22.03;;;14.40;99.90;;;;;;5071024;28;20467;-68
2023/05/09 05:31:45;;;;;;;29.30;21.40;;;14.50;99.90;;;;;;5075796;28;20447;-68
2023/05/09 05:34:13;;;;;;;31.17;21.20;;;14.70;99.90;;;;;;5074310;28;20491;-67
2023/05/09 05:36:40;;;;;;;37.83;23.43;;;14.90;99.90;;;;;;5070742;28;20974;-68
2023/05/09 05:39:09;;;;;;;30.07;21.77;;;15.00;99.90;;;;;;5071231;28;20424;-68
2023/05/09 05:41:37;;;;;;;28.53;21.93;;;15.10;99.90;;;;;;5070812;28;20479;-68
2023/05/09 05:44:04;;;;;;;29.03;21.93;;;15.20;99.90;;;;;;5071321;28;20932;-68
2023/05/09 05:46:31;;;;;;;32.73;22.50;;;15.30;99.90;;;;;;5090311;28;20439;-68
2023/05/09 05:48:59;;;;;;;27.20;20.57;;;15.40;99.90;;;;;;5083411;28;20522;-67
2023/05/09 05:51:26;;;;;;;26.63;19.40;;;15.50;99.90;;;;;;5061966;28;20535;-68
2023/05/09 05:53:54;;;;;;;22.00;18.70;;;15.70;99.90;;;;;;5071500;28;20542;-68
2023/05/09 05:56:21;;;;;;;25.30;17.53;;;15.80;99.90;;;;;;5067544;28;20463;-68
2023/05/09 05:58:48;;;;;;;24.80;17.57;;;15.90;99.90;;;;;;5071376;28;20454;-68
2023/05/09 06:01:16;;;;;;;22.87;17.73;;;16.00;99.90;;;;;;5070416;28;20689;-68
2023/05/09 06:03:43;;;;;;;22.53;16.23;;;16.00;99.80;;;;;;5070022;28;20463;-68
2023/05/09 06:06:14;;;;;;;22.07;18.00;;;16.10;99.90;;;;;;5079674;28;20464;-69
2023/05/09 06:08:41;;;;;;;22.77;15.80;;;16.20;99.70;;;;;;5075295;28;20467;-67
2023/05/09 06:11:12;;;;;;;23.30;17.40;;;16.20;99.30;;;;;;5074780;28;20490;-68
2023/05/09 06:13:40;;;;;;;20.70;16.30;;;16.30;98.90;;;;;;5068831;28;20485;-68
2023/05/09 06:16:09;;;;;;;19.30;14.87;;;16.40;98.80;;;;;;5071035;28;20542;-67
2023/05/09 06:18:38;;;;;;;21.93;16.03;;;16.40;98.40;;;;;;5072437;28;20872;-67
2023/05/09 06:21:06;;;;;;;21.60;16.40;;;16.40;98.10;;;;;;5071229;28;20440;-67
2023/05/09 06:23:35;;;;;;;24.23;17.90;;;16.40;98.00;;;;;;5071635;28;20478;-67
2023/05/09 06:26:03;;;;;;;22.10;16.60;;;16.40;98.00;;;;;;5066632;28;20523;-68
2023/05/09 06:28:35;;;;;;;29.30;17.90;;;16.30;98.20;;;;;;5071292;28;20477;-68
2023/05/09 06:31:04;;;;;;;26.73;18.43;;;16.20;98.40;;;;;;5071061;28;20468;-68
2023/05/09 06:33:32;;;;;;;37.50;18.93;;;16.20;98.70;;;;;;5071934;28;20490;-68
2023/05/09 06:36:00;;;;;;;22.90;18.90;;;16.20;98.90;;;;;;5071307;28;20436;-69
2023/05/09 06:38:27;;;;;;;22.57;16.53;;;16.20;99.10;;;;;;5071877;28;20798;-68
2023/05/09 06:40:55;;;;;;;23.80;18.27;;;16.20;99.10;;;;;;5072298;28;20444;-68
2023/05/09 06:43:22;;;;;;;25.80;18.73;;;16.20;99.20;;;;;;5072408;28;20562;-68
2023/05/09 06:45:52;;;;;;;26.30;20.00;;;16.30;99.30;;;;;;5073025;28;20468;-68
2023/05/09 06:48:19;;;;;;;24.67;17.50;;;16.30;98.80;;;;;;5075665;28;20519;-68
2023/05/09 06:50:47;;;;;;;22.67;17.30;;;16.40;98.70;;;;;;5073893;28;20443;-67
2023/05/09 06:53:14;;;;;;;26.00;19.93;;;16.50;98.70;;;;;;5076034;28;20473;-67
2023/05/09 06:55:41;;;;;;;25.43;18.73;;;16.70;98.50;;;;;;5075790;28;20493;-67
2023/05/09 06:58:09;;;;;;;24.13;18.40;;;16.80;98.00;;;;;;5076309;28;20451;-67
2023/05/09 07:00:37;;;;;;;25.07;19.37;;;16.90;97.50;;;;;;5076146;28;20440;-68
2023/05/09 07:03:06;;;;;;;27.87;19.73;;;17.00;97.40;;;;;;5075930;28;20837;-67
2023/05/09 07:05:35;;;;;;;24.40;18.90;;;17.00;97.00;;;;;;5076431;28;20784;-68
2023/05/09 07:08:02;;;;;;;22.00;17.90;;;17.10;97.30;;;;;;5075925;28;20444;-67
2023/05/09 07:10:30;;;;;;;26.07;19.20;;;17.10;97.70;;;;;;5076310;28;20444;-67
2023/05/09 07:12:57;;;;;;;22.77;18.60;;;17.30;97.60;;;;;;5075763;28;20535;-67
2023/05/09 07:15:26;;;;;;;24.13;19.07;;;17.30;97.10;;;;;;5075430;28;20475;-67
2023/05/09 07:17:53;;;;;;;25.43;19.63;;;17.40;97.10;;;;;;5075657;28;20468;-67
2023/05/09 07:20:20;;;;;;;24.17;19.27;;;17.50;97.00;;;;;;5075616;28;20436;-67
2023/05/09 07:22:47;;;;;;;24.90;18.30;;;17.70;96.70;;;;;;5075763;28;20560;-67
2023/05/09 07:25:14;;;;;;;23.33;18.60;;;17.80;96.40;;;;;;5075525;28;20926;-67
2023/05/09 07:27:41;;;;;;;27.37;18.63;;;17.90;96.50;;;;;;5075317;28;20462;-67
2023/05/09 07:30:09;;;;;;;23.77;18.20;;;18.20;96.30;;;;;;5075704;28;20851;-67
2023/05/09 07:32:38;;;;;;;22.03;16.63;;;18.60;96.00;;;;;;5075802;28;20443;-67
2023/05/09 07:35:05;;;;;;;21.53;15.20;;;19.20;94.80;;;;;;5075708;28;20518;-67
2023/05/09 07:37:33;;;;;;;22.97;18.33;;;19.80;92.40;;;;;;5075756;28;20497;-68
2023/05/09 07:40:00;;;;;;;20.40;15.50;;;20.20;91.30;;;;;;5075711;28;20489;-68
2023/05/09 07:42:29;;;;;;;25.60;16.43;;;20.30;88.70;;;;;;5075474;28;20480;-67
2023/05/09 07:44:56;;;;;;;19.63;15.60;;;20.40;87.40;;;;;;5075025;28;20865;-67
2023/05/09 07:47:23;;;;;;;19.33;15.10;;;20.40;86.20;;;;;;5075485;28;20766;-67
2023/05/09 07:49:51;;;;;;;19.33;15.17;;;20.60;85.60;;;;;;5075300;28;20436;-67
2023/05/09 07:52:19;;;;;;;17.90;14.70;;;20.80;83.90;;;;;;5075255;28;20479;-67
2023/05/09 07:54:46;;;;;;;17.37;14.70;;;21.00;83.50;;;;;;5075032;28;20435;-68
2023/05/09 07:57:13;;;;;;;20.77;16.10;;;21.10;81.90;;;;;;5074867;28;20523;-67
2023/05/09 07:59:41;;;;;;;18.67;14.83;;;21.10;82.20;;;;;;5075241;28;20451;-67
2023/05/09 08:02:08;;;;;;;17.57;14.27;;;21.10;83.10;;;;;;5075250;28;20484;-67
2023/05/09 08:04:36;;;;;;;19.23;16.10;;;21.30;82.70;;;;;;5075178;28;20523;-68
2023/05/09 08:07:06;;;;;;;17.37;14.57;;;21.40;82.10;;;;;;5074893;28;20439;-67
2023/05/09 08:09:34;;;;;;;16.37;12.63;;;21.60;83.30;;;;;;5074887;28;20436;-67
2023/05/09 08:12:01;;;;;;;15.00;13.03;;;21.70;83.00;;;;;;5074857;28;20436;-67
2023/05/09 08:14:29;;;;;;;14.47;12.67;;;21.70;84.40;;;;;;5074657;28;20538;-67
2023/05/09 08:16:56;;;;;;;15.37;12.10;;;21.60;82.30;;;;;;5075033;28;20451;-67
2023/05/09 08:19:24;;;;;;;13.93;12.27;;;21.60;83.20;;;;;;5074139;28;20468;-67
2023/05/09 08:21:52;;;;;;;14.07;10.77;;;21.70;82.80;;;;;;5074359;28;20522;-67
2023/05/09 08:24:20;;;;;;;11.77;10.53;;;21.80;82.70;;;;;;5074156;28;20439;-68
2023/05/09 08:26:47;;;;;;;14.63;10.50;;;21.80;81.60;;;;;;5074255;28;20440;-67
2023/05/09 08:29:15;;;;;;;11.03;9.47;;;21.80;82.20;;;;;;5074771;28;20535;-67
2023/05/09 08:31:42;;;;;;;8.83;7.87;;;21.70;82.60;;;;;;5074620;28;20444;-68
2023/05/09 08:34:09;;;;;;;9.73;8.40;;;21.70;82.40;;;;;;5074395;28;20472;-68
2023/05/09 08:36:36;;;;;;;12.10;8.43;;;21.80;81.00;;;;;;5074456;28;20440;-68
2023/05/09 08:39:04;;;;;;;9.90;7.80;;;21.90;80.70;;;;;;5074719;28;20514;-67
2023/05/09 08:41:34;;;;;;;9.80;8.50;;;22.10;80.70;;;;;;5074422;28;20544;-67
2023/05/09 08:44:02;;;;;;;12.03;8.13;;;22.30;78.10;;;;;;5073909;28;20480;-68
2023/05/09 08:46:34;;;;;;;8.40;7.57;;;22.40;76.70;;;;;;5074029;28;20532;-68
2023/05/09 08:49:01;;;;;;;9.20;7.30;;;22.50;78.60;;;;;;5074116;28;20446;-68
2023/05/09 08:51:32;;;;;;;7.97;6.57;;;22.70;78.50;;;;;;5073998;28;20521;-67
2023/05/09 08:54:01;;;;;;;7.20;6.50;;;23.00;79.30;;;;;;5074266;28;20451;-68
2023/05/09 08:56:29;;;;;;;7.80;6.63;;;23.30;77.30;;;;;;5073991;28;21000;-68
2023/05/09 08:58:58;;;;;;;9.00;6.60;;;23.50;71.80;;;;;;5073724;28;20493;-68
2023/05/09 09:01:28;;;;;;;7.50;5.70;;;23.60;70.70;;;;;;5074142;28;20443;-68
2023/05/09 09:03:56;;;;;;;6.00;5.10;;;23.70;70.10;;;;;;5073871;28;20479;-68
2023/05/09 09:06:24;;;;;;;6.80;5.30;;;23.70;71.20;;;;;;5073561;28;20439;-68
2023/05/09 09:08:54;;;;;;;5.97;4.80;;;23.60;72.30;;;;;;5072921;28;20441;-68
2023/05/09 09:11:21;;;;;;;5.27;4.47;;;23.60;70.50;;;;;;5073683;28;20871;-68
2023/05/09 09:13:52;;;;;;;5.93;5.13;;;23.70;66.50;;;;;;5073672;28;20436;-68
2023/05/09 09:16:23;;;;;;;6.70;4.07;;;23.70;67.00;;;;;;5073599;28;20514;-68
2023/05/09 09:18:52;;;;;;;6.33;4.60;;;23.90;67.40;;;;;;5072976;28;20842;-68
2023/05/09 09:21:22;;;;;;;4.73;4.20;;;23.80;64.80;;;;;;5073595;28;20444;-68
2023/05/09 09:23:50;;;;;;;5.60;4.50;;;23.70;67.80;;;;;;5073502;28;20483;-68
2023/05/09 09:26:17;;;;;;;5.47;4.30;;;23.80;66.10;;;;;;5073527;28;20448;-68
2023/05/09 09:28:44;;;;;;;6.57;4.07;;;23.80;60.40;;;;;;5073268;28;20448;-68
2023/05/09 09:31:23;;;;;;;4.40;3.37;;;23.80;65.20;;;;;;5072974;28;20436;-68
2023/05/09 09:33:51;;;;;;;5.10;3.57;;;24.10;65.00;;;;;;5072953;28;20519;-68
2023/05/09 09:36:26;;;;;;;4.60;3.27;;;24.20;64.70;;;;;;5073098;28;20459;-68
2023/05/09 09:38:58;;;;;;;3.80;2.80;;;24.50;66.40;;;;;;5072980;28;20948;-68
2023/05/09 09:41:30;;;;;;;5.53;3.83;;;24.60;66.70;;;;;;5073036;28;20481;-67
2023/05/09 09:43:57;;;;;;;5.83;3.60;;;24.60;67.70;;;;;;5073189;28;20482;-67
2023/05/09 09:46:28;;;;;;;4.60;3.90;;;24.70;63.90;;;;;;5072929;28;20480;-67
2023/05/09 09:48:56;;;;;;;4.57;3.60;;;24.70;62.00;;;;;;5073468;28;20479;-68
2023/05/09 09:51:27;;;;;;;4.93;3.37;;;24.60;61.00;;;;;;5073339;28;20440;-67
2023/05/09 09:53:55;;;;;;;4.03;3.20;;;24.80;60.20;;;;;;5073187;28;20436;-68
2023/05/09 09:56:37;;;;;;;4.27;3.50;;;24.90;58.80;;;;;;5073256;28;20530;-67
2023/05/09 09:59:12;;;;;;;4.30;3.07;;;24.80;59.10;;;;;;5072989;28;21011;-68
2023/05/09 10:02:00;;;;;;;5.83;3.47;;;24.90;60.20;;;;;;5072715;28;20518;-68
2023/05/09 10:04:30;;;;;;;3.53;2.67;;;25.00;59.10;;;;;;5072609;28;20484;-68
2023/05/09 10:07:19;;;;;;;4.20;2.03;;;25.30;59.40;;;;;;5073015;28;20447;-68
2023/05/09 10:09:49;;;;;;;3.83;1.73;;;25.70;57.80;;;;;;5072935;28;20436;-68
2023/05/09 10:12:18;;;;;;;3.70;2.97;;;26.10;57.70;;;;;;5073012;28;20527;-68
2023/05/09 10:14:47;;;;;;;3.87;3.13;;;26.40;55.60;;;;;;5072817;28;20519;-68
2023/05/09 10:17:17;;;;;;;3.00;2.30;;;26.40;52.50;;;;;;5072637;28;20451;-68
2023/05/09 10:19:50;;;;;;;4.40;3.30;;;26.10;52.60;;;;;;5074013;28;20496;-68
2023/05/09 10:22:19;;;;;;;4.57;2.83;;;26.00;56.20;;;;;;5076796;28;20443;-68
2023/05/09 10:24:51;;;;;;;3.77;2.33;;;26.00;55.80;;;;;;5076847;28;20475;-68
2023/05/09 10:27:25;;;;;;;3.33;2.37;;;26.10;55.60;;;;;;5076707;28;20468;-69
2023/05/09 10:29:57;;;;;;;3.10;2.37;;;26.10;52.90;;;;;;5076490;28;20481;-68
2023/05/09 10:32:31;;;;;;;2.70;2.00;;;26.00;53.10;;;;;;5077049;28;20439;-68
2023/05/09 10:35:04;;;;;;;3.37;2.30;;;25.90;52.90;;;;;;5077049;28;20440;-68
2023/05/09 10:37:32;;;;;;;3.43;1.80;;;25.80;52.30;;;;;;5076396;28;20518;-68
2023/05/09 10:40:03;;;;;;;2.73;1.87;;;25.80;50.90;;;;;;5076610;28;20467;-68
2023/05/09 10:42:30;;;;;;;4.03;1.80;;;26.00;54.20;;;;;;5076352;28;20472;-68
2023/05/09 10:44:58;;;;;;;2.60;1.70;;;26.20;51.90;;;;;;5076665;28;20463;-68
2023/05/09 10:47:30;;;;;;;3.20;2.10;;;26.30;49.10;;;;;;5076613;28;20468;-68
2023/05/09 10:50:05;;;;;;;2.80;1.83;;;26.40;52.10;;;;;;5076240;28;20930;-68
2023/05/09 10:53:07;;;;;;;2.83;1.73;;;26.50;54.00;;;;;;5076659;28;20435;-68
2023/05/09 10:55:38;;;;;;;6.20;1.50;;;26.60;53.70;;;;;;5076652;28;20890;-68
2023/05/09 10:58:22;;;;;;;2.80;2.20;;;26.60;53.60;;;;;;5076099;28;20536;-68
2023/05/09 11:00:50;;;;;;;2.47;1.67;;;26.70;53.00;;;;;;5076328;28;20457;-69
2023/05/09 11:03:23;;;;;;;3.43;1.60;;;26.60;50.40;;;;;;5076129;28;20578;-68
2023/05/09 11:05:52;;;;;;;3.63;1.90;;;26.60;52.80;;;;;;5076319;28;20479;-68
2023/05/09 11:08:25;;;;;;;3.20;1.70;;;26.60;52.90;;;;;;5076264;28;20476;-68
2023/05/09 11:10:53;;;;;;;2.27;1.43;;;26.60;53.40;;;;;;5076184;28;20436;-68
2023/05/09 11:13:22;;;;;;;2.80;1.50;;;26.70;51.60;;;;;;5076019;28;20436;-69
2023/05/09 11:16:19;;;;;;;3.90;1.90;;;26.80;52.10;;;;;;5076188;28;20915;-68
2023/05/09 11:18:53;;;;;;;2.70;1.67;;;27.10;51.20;;;;;;5033372;28;20466;-68
2023/05/09 11:21:21;;;;;;;2.77;1.50;;;27.40;50.90;;;;;;5067477;28;20861;-68
2023/05/09 11:23:59;;;;;;;2.20;1.30;;;27.70;49.20;;;;;;5075722;28;20568;-68
2023/05/09 11:26:31;;;;;;;2.13;1.50;;;28.00;49.40;;;;;;5075796;28;20526;-69
2023/05/09 11:29:01;;;;;;;2.50;1.40;;;28.20;47.70;;;;;;5075934;28;20467;-68
2023/05/09 11:31:28;;;;;;;2.43;1.70;;;28.40;49.20;;;;;;5074673;28;20842;-68
2023/05/09 11:34:03;;;;;;;2.43;1.47;;;28.60;45.20;;;;;;5075613;28;20440;-69
2023/05/09 11:36:32;;;;;;;2.60;1.60;;;28.60;45.50;;;;;;5075181;28;20440;-68
2023/05/09 11:39:05;;;;;;;2.53;1.27;;;28.70;47.00;;;;;;5075563;28;21005;-69
2023/05/09 11:41:39;;;;;;;3.63;1.50;;;28.70;45.50;;;;;;5075870;28;20433;-69
2023/05/09 11:44:13;;;;;;;2.30;1.30;;;28.70;42.30;;;;;;5075294;28;20478;-69
2023/05/09 11:46:40;;;;;;;4.40;3.10;;;28.50;45.00;;;;;;5075225;28;20464;-68
2023/05/09 11:49:11;;;;;;;2.20;1.20;;;28.40;42.70;;;;;;5075301;28;20475;-69
2023/05/09 11:51:41;;;;;;;2.43;1.30;;;28.30;42.90;;;;;;5075485;28;20477;-68
2023/05/09 11:54:13;;;;;;;2.47;1.07;;;28.30;43.80;;;;;;5075202;28;20432;-68
2023/05/09 11:56:45;;;;;;;4.50;4.10;;;28.40;45.10;;;;;;5075063;28;20443;-69
2023/05/09 11:59:17;;;;;;;5.43;2.00;;;28.60;45.70;;;;;;5074944;28;20998;-69
2023/05/09 12:01:45;;;;;;;5.87;1.83;;;28.80;45.70;;;;;;5074991;28;20443;-69
2023/05/09 12:04:14;;;;;;;2.60;1.43;;;29.10;43.30;;;;;;5075153;28;20480;-68
2023/05/09 12:06:46;;;;;;;3.50;1.33;;;29.20;41.00;;;;;;5075097;28;20539;-68
2023/05/09 12:09:15;;;;;;;2.97;1.40;;;29.00;41.80;;;;;;5075182;28;20484;-68
2023/05/09 12:11:48;;;;;;;3.53;1.50;;;28.80;41.80;;;;;;5074514;28;20523;-69
2023/05/09 12:14:29;;;;;;;2.83;1.30;;;28.60;42.30;;;;;;5074532;28;20447;-68
2023/05/09 12:16:56;;;;;;;1.90;1.00;;;28.30;40.80;;;;;;5074953;28;20420;-68
2023/05/09 12:19:25;;;;;;;2.63;1.30;;;28.20;41.50;;;;;;5074253;28;20546;-68
2023/05/09 12:21:56;;;;;;;2.93;1.37;;;28.10;42.70;;;;;;5074857;28;20531;-69
2023/05/09 12:24:27;;;;;;;2.30;1.10;;;28.00;41.30;;;;;;5074617;28;20484;-68
2023/05/09 12:27:00;;;;;;;2.00;1.20;;;27.80;42.10;;;;;;5074835;28;20833;-68
2023/05/09 12:29:32;;;;;;;2.63;1.50;;;27.60;40.70;;;;;;5074294;28;20548;-69
2023/05/09 12:32:04;;;;;;;2.47;1.10;;;27.60;45.00;;;;;;5074318;28;20472;-68
2023/05/09 12:34:35;;;;;;;2.10;1.20;;;27.80;44.60;;;;;;5074553;28;20443;-68
2023/05/09 12:37:02;;;;;;;3.40;1.00;;;27.90;43.40;;;;;;5074503;28;20440;-69
2023/05/09 12:39:35;;;;;;;4.10;2.37;;;27.90;41.90;;;;;;5074421;28;20483;-68
2023/05/09 12:42:03;;;;;;;3.10;1.00;;;28.00;42.40;;;;;;5074452;28;20458;-68
2023/05/09 12:44:34;;;;;;;3.17;1.00;;;28.10;42.00;;;;;;5073427;28;20487;-68